You are listening to:
RJAA Ground #1 - Tokyo, Japan

RJAA 121800Z AUTO 36009KT 9999 NCD 12/11 Q1017 TEMPO 4000 BR FEW005 BKN008

If stream doesn't start automatically press the play button
If stream stops then reload player then press play